createdAt,value
2023-04-17T05:32:58.581Z,45.38
2023-04-17T05:35:25.817Z,44.17
2023-04-17T05:37:54.225Z,45.03
2023-04-17T05:40:21.600Z,42.67
2023-04-17T05:42:48.755Z,45.00
2023-04-17T05:45:17.943Z,41.53
2023-04-17T05:47:45.982Z,47.08
2023-04-17T05:50:13.477Z,39.75
2023-04-17T05:52:40.876Z,47.40
2023-04-17T05:55:10.321Z,43.38
2023-04-17T05:57:38.030Z,45.25
2023-04-17T06:00:11.317Z,41.53
2023-04-17T06:02:41.486Z,46.33
2023-04-17T06:05:09.780Z,44.13
2023-04-17T06:07:39.767Z,40.92
2023-04-17T06:10:15.235Z,35.22
2023-04-17T06:12:53.224Z,41.38
2023-04-17T06:15:35.790Z,40.92
2023-04-17T06:18:08.826Z,44.30
2023-04-17T06:23:13.995Z,35.03
2023-04-17T06:25:41.618Z,42.88
2023-04-17T06:28:12.320Z,37.70
2023-04-17T06:30:40.906Z,35.70
2023-04-17T06:33:09.104Z,46.95
2023-04-17T06:35:37.907Z,43.78
2023-04-17T06:38:06.277Z,39.25
2023-04-17T06:40:34.042Z,43.05
2023-04-17T06:43:06.583Z,38.83
2023-04-17T06:45:36.411Z,37.47
2023-04-17T06:48:04.177Z,42.45
2023-04-17T06:50:31.914Z,39.97
2023-04-17T06:52:59.840Z,38.00
2023-04-17T06:55:27.372Z,37.65
2023-04-17T06:57:56.886Z,37.53
2023-04-17T07:00:24.389Z,38.25
2023-04-17T07:02:54.366Z,35.25
2023-04-17T07:05:22.047Z,44.70
2023-04-17T07:07:49.305Z,38.65
2023-04-17T07:10:19.394Z,33.75
2023-04-17T07:12:47.098Z,41.83
2023-04-17T07:15:14.494Z,40.63
2023-04-17T07:17:42.241Z,37.33
2023-04-17T07:20:10.316Z,34.22
2023-04-17T07:22:38.357Z,33.90
2023-04-17T07:25:06.377Z,34.88
2023-04-17T07:27:34.168Z,35.45
2023-04-17T07:30:02.324Z,35.10
2023-04-17T07:32:30.306Z,30.92
2023-04-17T07:34:57.966Z,40.45
2023-04-17T07:37:25.678Z,32.15
2023-04-17T07:39:55.430Z,27.88
2023-04-17T07:42:23.284Z,33.22
2023-04-17T07:44:51.054Z,30.23
2023-04-17T07:47:19.225Z,31.65
2023-04-17T07:49:49.125Z,33.05
2023-04-17T07:52:18.348Z,31.20
2023-04-17T07:54:46.633Z,31.60
2023-04-17T07:57:16.424Z,28.35
2023-04-17T07:59:45.945Z,36.10
2023-04-17T08:02:14.497Z,33.97
2023-04-17T08:04:44.979Z,30.27
2023-04-17T08:07:14.547Z,29.50
2023-04-17T08:09:44.001Z,33.83
2023-04-17T08:12:12.323Z,35.22
2023-04-17T08:14:41.108Z,32.15
2023-04-17T08:17:10.203Z,28.85
2023-04-17T08:19:37.856Z,29.08
2023-04-17T08:22:11.132Z,32.80
2023-04-17T08:24:38.947Z,34.97
2023-04-17T08:27:08.015Z,29.95
2023-04-17T08:29:35.811Z,33.67
2023-04-17T08:32:13.126Z,30.70
2023-04-17T08:34:42.641Z,32.17
2023-04-17T08:37:12.679Z,26.83
2023-04-17T08:39:45.999Z,28.52
2023-04-17T08:42:18.846Z,32.03
2023-04-17T08:44:51.829Z,30.10
2023-04-17T08:47:20.356Z,30.73
2023-04-17T08:49:57.394Z,25.80
2023-04-17T08:52:50.576Z,26.33
2023-04-17T08:55:30.216Z,31.85
2023-04-17T08:57:59.480Z,32.42
2023-04-17T09:00:35.943Z,36.63
2023-04-17T09:03:08.215Z,34.45
2023-04-17T09:05:38.235Z,29.52
2023-04-17T09:08:24.403Z,29.40
2023-04-17T09:10:54.919Z,28.88
2023-04-17T09:13:25.564Z,24.77
2023-04-17T09:16:13.239Z,24.77
2023-04-17T09:18:43.216Z,24.80
2023-04-17T09:21:10.842Z,33.42
2023-04-17T09:23:56.353Z,27.42
2023-04-17T09:26:24.884Z,23.73
2023-04-17T09:29:04.237Z,23.38
2023-04-17T09:31:34.632Z,20.52
2023-04-17T09:34:08.090Z,27.55
2023-04-17T09:36:38.225Z,21.00
2023-04-17T09:39:22.666Z,22.85
2023-04-17T09:42:04.446Z,21.90
2023-04-17T09:44:34.549Z,19.02
2023-04-17T09:47:20.253Z,18.23
2023-04-17T09:49:53.506Z,21.13
2023-04-17T09:52:26.815Z,28.13
2023-04-17T09:54:57.919Z,25.90
2023-04-17T09:57:28.564Z,25.45
2023-04-17T10:00:04.413Z,28.42
2023-04-17T10:02:45.365Z,34.45
2023-04-17T10:05:15.214Z,28.98
2023-04-17T10:07:47.469Z,26.63
2023-04-17T10:10:30.561Z,25.77
2023-04-17T10:13:07.102Z,28.15
2023-04-17T10:15:36.761Z,32.38
2023-04-17T10:18:25.114Z,24.15
2023-04-17T10:20:55.768Z,24.83
2023-04-17T10:23:28.818Z,16.45
2023-04-17T10:29:10.212Z,14.38
2023-04-17T10:32:11.744Z,14.85
2023-04-17T10:34:43.976Z,14.00
2023-04-17T10:37:15.480Z,12.93
2023-04-17T10:39:56.827Z,13.43
2023-04-17T10:42:26.914Z,9.90
2023-04-17T10:44:59.887Z,11.90
2023-04-17T10:50:04.149Z,9.27
2023-04-17T10:52:32.904Z,8.68
2023-04-17T10:55:18.750Z,9.98
2023-04-17T10:58:02.473Z,7.90
2023-04-17T11:00:38.840Z,9.50
2023-04-17T11:03:07.684Z,10.57
2023-04-17T11:05:36.068Z,8.43
2023-04-17T11:08:06.448Z,10.63
2023-04-17T11:10:37.273Z,10.07
2023-04-17T11:13:04.922Z,8.65
2023-04-17T11:15:37.100Z,12.95
2023-04-17T11:18:05.444Z,11.88
2023-04-17T11:20:36.085Z,12.10
2023-04-17T11:23:05.110Z,13.27
2023-04-17T11:25:34.384Z,18.73
2023-04-17T11:28:05.071Z,14.63
2023-04-17T11:30:42.187Z,12.30
2023-04-17T11:33:09.941Z,14.20
2023-04-17T11:35:40.546Z,16.42
2023-04-17T11:38:14.968Z,16.15
2023-04-17T11:40:51.642Z,17.15
2023-04-17T11:43:23.776Z,17.02
2023-04-17T11:45:56.572Z,14.37
2023-04-17T11:48:26.533Z,15.10
2023-04-17T11:50:57.150Z,14.23
2023-04-17T11:53:25.490Z,13.00
2023-04-17T11:56:16.092Z,12.40
2023-04-17T11:58:49.893Z,11.43
2023-04-17T12:01:19.439Z,14.48
2023-04-17T12:03:48.255Z,11.48
2023-04-17T12:06:17.193Z,12.63
2023-04-17T12:08:47.258Z,14.88
2023-04-17T12:11:29.955Z,13.52
2023-04-17T12:13:57.920Z,9.95
2023-04-17T12:16:27.442Z,9.38
2023-04-17T12:18:55.881Z,9.57
2023-04-17T12:21:24.219Z,10.05
2023-04-17T12:23:52.430Z,8.30
2023-04-17T12:26:19.641Z,7.90
2023-04-17T12:28:47.965Z,10.95
2023-04-17T12:31:15.212Z,7.82
2023-04-17T12:33:43.514Z,6.78
2023-04-17T12:36:11.248Z,7.82
2023-04-17T12:38:38.557Z,7.55
2023-04-17T12:41:06.856Z,5.65
2023-04-17T12:43:34.301Z,9.18
2023-04-17T12:46:02.257Z,8.65
2023-04-17T12:48:32.716Z,7.57
2023-04-17T12:51:02.497Z,6.38
2023-04-17T12:53:30.404Z,6.55
2023-04-17T12:55:57.739Z,5.85
2023-04-17T12:58:25.421Z,6.40
2023-04-17T13:00:52.651Z,8.60
2023-04-17T13:03:26.351Z,5.28
2023-04-17T13:05:53.738Z,5.40
2023-04-17T13:08:24.096Z,5.85
2023-04-17T13:10:53.391Z,9.85
2023-04-17T13:13:21.612Z,6.70
2023-04-17T13:15:49.774Z,6.55
2023-04-17T13:18:17.462Z,11.02
2023-04-17T13:20:47.120Z,8.45
2023-04-17T13:23:14.570Z,6.35
2023-04-17T13:25:42.074Z,6.85
2023-04-17T13:28:09.388Z,6.75
2023-04-17T13:30:37.838Z,8.23
2023-04-17T13:33:05.711Z,5.32
2023-04-17T13:35:32.939Z,8.00
2023-04-17T13:38:02.953Z,8.43
2023-04-17T13:40:31.269Z,6.90
2023-04-17T13:42:58.577Z,5.88
2023-04-17T13:45:26.255Z,9.10
2023-04-17T13:47:53.981Z,5.50
2023-04-17T13:50:21.592Z,5.28
2023-04-17T13:52:49.250Z,5.82
2023-04-17T13:55:17.409Z,8.45
2023-04-17T13:57:44.656Z,7.53
2023-04-17T14:00:12.582Z,6.28
2023-04-17T14:02:40.382Z,6.47
2023-04-17T14:05:08.199Z,7.65
2023-04-17T14:07:35.986Z,5.15
2023-04-17T14:10:03.287Z,8.77
2023-04-17T14:12:30.953Z,7.72
2023-04-17T14:14:58.510Z,9.73
2023-04-17T14:17:26.370Z,6.22
2023-04-17T14:19:53.622Z,5.43
2023-04-17T14:22:21.536Z,11.50
2023-04-17T14:24:48.745Z,6.43
2023-04-17T14:27:16.565Z,9.05
2023-04-17T14:29:43.934Z,6.97
2023-04-17T14:32:11.574Z,6.93
2023-04-17T14:34:39.096Z,7.00
2023-04-17T14:37:06.336Z,7.70
2023-04-17T14:39:33.932Z,8.55
2023-04-17T14:42:02.129Z,8.35
2023-04-17T14:44:30.175Z,7.93
2023-04-17T14:46:57.992Z,8.55
2023-04-17T14:49:25.591Z,9.23
2023-04-17T14:51:52.963Z,10.80
2023-04-17T14:54:21.255Z,8.13
2023-04-17T14:56:50.230Z,10.63
2023-04-17T14:59:17.829Z,9.65
2023-04-17T15:01:44.929Z,7.82
2023-04-17T15:04:12.449Z,8.57
2023-04-17T15:06:39.868Z,6.63
2023-04-17T15:09:07.157Z,8.85
2023-04-17T15:11:34.668Z,9.20
2023-04-17T15:14:02.627Z,7.25
2023-04-17T15:16:30.772Z,8.07
2023-04-17T15:18:58.474Z,9.27
2023-04-17T15:21:26.536Z,9.52
2023-04-17T15:23:53.827Z,9.35
2023-04-17T15:26:21.056Z,14.30
2023-04-17T15:28:48.293Z,8.02
2023-04-17T15:31:15.983Z,6.00
2023-04-17T15:33:43.192Z,10.45
2023-04-17T15:36:11.348Z,7.25
2023-04-17T15:38:38.756Z,7.53
2023-04-17T15:41:06.105Z,7.00
2023-04-17T15:43:33.859Z,8.13
2023-04-17T15:46:03.321Z,10.07
2023-04-17T15:48:31.378Z,7.47
2023-04-17T15:50:58.514Z,8.05
2023-04-17T15:53:26.188Z,12.23
2023-04-17T15:55:53.353Z,6.50
2023-04-17T15:58:20.730Z,14.93
